Time;durP1;ratioP1;P1;durP2;ratioP2;P2;SDS_P1;SDS_P2;PMS_P1;PMS_P2;Temp;Humidity;BMP_temperature;BMP_pressure;BME280_temperature;BME280_humidity;BME280_pressure;Samples;Min_cycle;Max_cycle;Signal;HPM_P1;HPM_P2
2021/09/21 00:06:41;;;;;;;;;;;;;;;14.91;74.76;102051.22;15633358;28;20046;-60
2021/09/21 00:14:15;;;;;;;1999.90;999.90;;;;;;;14.85;75.11;102060.97;15640817;28;19921;-58
2021/09/21 00:21:48;;;;;;;1999.90;999.90;;;;;;;14.89;74.72;102064.75;15648838;28;20041;-58
2021/09/21 00:29:21;;;;;;;1999.90;999.90;;;;;;;14.90;75.08;102066.44;15710683;28;20052;-58
2021/09/21 00:36:55;;;;;;;1999.90;999.90;;;;;;;14.87;74.84;102058.66;15658162;28;20573;-59
2021/09/21 00:44:29;;;;;;;1999.90;999.90;;;;;;;14.85;74.67;102058.16;15655119;28;20044;-57
2021/09/21 00:52:02;;;;;;;1999.90;999.90;;;;;;;14.82;74.24;102056.03;15654956;28;20137;-58
2021/09/21 00:59:40;;;;;;;1999.90;999.90;;;;;;;14.86;74.01;102067.41;15654294;28;20079;-57
2021/09/21 01:07:12;;;;;;;1999.90;999.90;;;;;;;14.69;74.74;102065.41;15644236;28;20044;-58
2021/09/21 01:14:46;;;;;;;1999.90;999.90;;;;;;;14.59;75.36;102065.72;15640107;28;20069;-58
2021/09/21 01:22:19;;;;;;;;;;;;;;;14.64;75.38;102065.59;15633033;28;20033;-56
2021/09/21 01:29:54;;;;;;;1999.90;999.90;;;;;;;14.56;75.71;102072.81;15672015;28;20455;-58
2021/09/21 01:37:29;;;;;;;1999.90;999.90;;;;;;;14.50;75.86;102076.13;15669400;28;20139;-58
2021/09/21 01:45:01;;;;;;;1999.90;999.90;;;;;;;14.60;75.39;102081.44;15676425;23;20076;-57
2021/09/21 01:52:38;;;;;;;1999.90;999.90;;;;;;;14.50;75.80;102090.19;15678361;28;20049;-57
2021/09/21 02:00:11;;;;;;;1999.90;999.90;;;;;;;14.57;75.18;102084.88;15634028;28;20044;-60
2021/09/21 02:07:45;;;;;;;1999.90;999.90;;;;;;;14.52;75.19;102071.84;15616496;28;20045;-60
2021/09/21 02:15:20;;;;;;;;;;;;;;;14.56;75.09;102069.19;15639495;28;20084;-58
2021/09/21 02:22:54;;;;;;;1999.90;999.90;;;;;;;14.47;75.29;102063.56;15657169;28;19932;-61
2021/09/21 02:30:26;;;;;;;1999.90;999.90;;;;;;;14.39;75.02;102065.19;15613789;28;20042;-60
2021/09/21 02:38:00;;;;;;;1999.90;999.90;;;;;;;14.29;75.90;102070.28;15566194;28;20048;-60
2021/09/21 02:45:32;;;;;;;1999.90;999.90;;;;;;;14.34;75.01;102073.75;15648847;28;20045;-59
2021/09/21 02:53:05;;;;;;;1999.90;999.90;;;;;;;14.24;75.96;102059.16;15629076;28;20607;-61
2021/09/21 03:00:39;;;;;;;1999.90;999.90;;;;;;;14.30;74.52;102071.91;15621553;28;20053;-61
2021/09/21 03:08:14;;;;;;;1999.90;999.90;;;;;;;14.27;75.45;102087.41;15604251;28;20041;-61
2021/09/21 03:23:38;;;;;;;1999.90;999.90;;;;;;;14.32;75.23;102098.50;15661704;28;20175;-61
2021/09/21 03:31:12;;;;;;;;;;;;;;;14.30;75.12;102103.63;15624999;28;20033;-59
2021/09/21 03:38:46;;;;;;;1999.90;999.90;;;;;;;14.23;75.88;102100.47;15658154;28;19925;-60
2021/09/21 03:46:21;;;;;;;1999.90;999.90;;;;;;;14.14;76.35;102114.44;15631528;28;20042;-60
2021/09/21 03:53:54;;;;;;;1999.90;999.90;;;;;;;14.22;76.52;102118.47;15648300;28;20171;-61
2021/09/21 04:01:34;;;;;;;1999.90;999.90;;;;;;;14.29;75.69;102121.63;15612634;28;20045;-61
2021/09/21 04:09:11;;;;;;;1999.90;999.90;;;;;;;14.18;76.23;102106.22;15586534;28;20056;-60
2021/09/21 04:17:07;;;;;;;1999.90;999.90;;;;;;;14.16;75.91;102111.31;15666355;28;20080;-60
2021/09/21 04:24:49;;;;;;;1999.90;999.90;;;;;;;14.24;75.27;102115.31;15646794;28;20064;-61
2021/09/21 04:32:31;;;;;;;;;;;;;;;14.14;75.99;102120.06;15631076;28;20096;-60
2021/09/21 04:40:14;;;;;;;1999.90;999.90;;;;;;;14.15;75.54;102135.75;15629493;28;19921;-59
2021/09/21 04:47:50;;;;;;;1999.90;999.90;;;;;;;14.04;76.12;102142.81;15645994;28;20037;-59
2021/09/21 04:55:23;;;;;;;1999.90;999.90;;;;;;;14.07;76.12;102145.00;15644152;28;20163;-58
2021/09/21 05:02:55;;;;;;;;;;;;;;;14.19;75.96;102154.78;15587802;28;20655;-60
2021/09/21 05:10:31;;;;;;;1999.90;999.90;;;;;;;14.14;76.17;102158.53;15601327;28;19937;-61
2021/09/21 05:18:04;;;;;;;1999.90;999.90;;;;;;;14.11;76.14;102164.81;15595755;28;20084;-58
2021/09/21 05:25:37;;;;;;;1999.90;999.90;;;;;;;14.21;76.07;102169.31;15632292;28;20041;-60
2021/09/21 05:33:11;;;;;;;1999.90;999.90;;;;;;;14.33;75.32;102161.94;15640955;28;20049;-58
2021/09/21 05:40:47;;;;;;;1999.90;999.90;;;;;;;14.39;75.35;102169.09;15627256;28;20052;-60
2021/09/21 05:48:21;;;;;;;1999.90;999.90;;;;;;;14.47;75.34;102183.50;15629619;28;20049;-61
2021/09/21 05:55:55;;;;;;;1999.90;999.90;;;;;;;14.62;75.07;102197.94;15679357;28;20446;-61
2021/09/21 06:03:28;;;;;;;1999.90;999.90;;;;;;;14.75;74.41;102190.56;15637592;28;20061;-60
2021/09/21 06:11:02;;;;;;;1999.90;999.90;;;;;;;14.77;74.15;102191.03;15616439;28;20103;-59
2021/09/21 06:18:34;;;;;;;1999.90;999.90;;;;;;;14.87;73.58;102213.22;15616529;28;20053;-57
2021/09/21 06:26:08;;;;;;;1999.90;999.90;;;;;;;14.95;73.37;102209.63;15620019;28;20522;-61
2021/09/21 06:33:40;;;;;;;1999.90;999.90;;;;;;;15.04;73.29;102222.88;15616149;28;20045;-61
2021/09/21 06:41:14;;;;;;;1999.90;999.90;;;;;;;15.35;72.52;102222.75;15598637;28;20041;-60
2021/09/21 06:48:50;;;;;;;1999.90;999.90;;;;;;;15.34;72.29;102244.44;15598957;28;20049;-59
2021/09/21 06:56:27;;;;;;;1999.90;999.90;;;;;;;15.62;71.84;102252.59;15622042;28;20053;-60
2021/09/21 07:04:00;;;;;;;1999.90;999.90;;;;;;;15.77;69.94;102258.56;15627937;28;20049;-60
2021/09/21 07:11:33;;;;;;;1999.90;999.90;;;;;;;15.95;70.04;102258.56;15622003;28;20085;-59
2021/09/21 07:19:05;;;;;;;1999.90;999.90;;;;;;;15.93;69.51;102261.69;15638713;28;20041;-61
2021/09/21 07:26:39;;;;;;;1999.90;999.90;;;;;;;15.87;69.41;102272.31;15661318;28;20049;-58
2021/09/21 07:34:11;;;;;;;1999.90;999.90;;;;;;;16.04;68.59;102263.00;15607352;28;20042;-58
2021/09/21 07:41:45;;;;;;;1999.90;999.90;;;;;;;16.29;67.53;102274.59;15606650;28;20041;-57
2021/09/21 07:49:17;;;;;;;1999.90;999.90;;;;;;;16.35;66.41;102282.50;15623179;28;20470;-60
2021/09/21 07:56:51;;;;;;;1999.90;999.90;;;;;;;16.73;64.47;102302.34;15603669;28;20053;-61
2021/09/21 08:04:23;;;;;;;1999.90;999.90;;;;;;;17.39;63.56;102304.66;15603919;28;20072;-58
2021/09/21 08:11:57;;;;;;;1999.90;999.90;;;;;;;17.96;62.06;102317.44;15668915;28;20052;-59
2021/09/21 08:19:29;;;;;;;1999.90;999.90;;;;;;;18.27;59.77;102316.97;15653627;28;20052;-60
2021/09/21 08:27:05;;;;;;;1999.90;999.90;;;;;;;19.13;56.42;102318.84;15603815;28;20122;-60
2021/09/21 08:34:37;;;;;;;1999.90;999.90;;;;;;;18.88;56.71;102320.84;15642250;28;20590;-61
2021/09/21 08:42:11;;;;;;;1999.90;999.90;;;;;;;19.37;57.34;102305.88;15671060;28;20041;-61
2021/09/21 08:49:47;;;;;;;1999.90;999.90;;;;;;;19.96;53.62;102306.13;15632205;28;20038;-60
2021/09/21 08:57:21;;;;;;;1999.90;999.90;;;;;;;19.77;53.36;102305.97;15617940;28;20076;-60
2021/09/21 09:05:02;;;;;;;1999.90;999.90;;;;;;;19.43;53.61;102308.13;15634963;28;20502;-60
2021/09/21 09:12:37;;;;;;;1999.90;999.90;;;;;;;20.06;53.21;102314.13;15625268;28;20095;-59
2021/09/21 09:20:10;;;;;;;1999.90;999.90;;;;;;;20.75;50.49;102318.56;15607672;28;20034;-60
2021/09/21 09:27:46;;;;;;;1999.90;999.90;;;;;;;19.68;51.35;102310.94;15616886;28;20037;-60
2021/09/21 09:35:24;;;;;;;1999.90;999.90;;;;;;;19.20;53.02;102318.28;15588068;28;20049;-60
2021/09/21 09:42:58;;;;;;;1999.90;999.90;;;;;;;19.39;53.18;102312.03;15620537;28;20561;-60
2021/09/21 09:50:34;;;;;;;1999.90;999.90;;;;;;;19.80;52.37;102300.41;15615622;28;20042;-60
2021/09/21 09:58:09;;;;;;;1999.90;999.90;;;;;;;20.17;49.67;102291.78;15615394;28;20059;-57
2021/09/21 10:05:42;;;;;;;1999.90;999.90;;;;;;;19.36;50.38;102301.38;15615289;28;20100;-58
2021/09/21 10:13:18;;;;;;;1999.90;999.90;;;;;;;20.51;48.69;102300.84;15614650;28;20060;-60
2021/09/21 10:20:58;;;;;;;1999.90;999.90;;;;;;;21.14;45.54;102296.03;15651902;28;20112;-59
2021/09/21 10:28:38;;;;;;;1999.90;999.90;;;;;;;21.54;43.74;102295.81;15638857;28;20129;-58
2021/09/21 10:36:18;;;;;;;1999.90;999.90;;;;;;;21.32;45.04;102305.00;15632925;28;20127;-60
2021/09/21 10:44:00;;;;;;;1999.90;999.90;;;;;;;21.83;46.88;102291.59;15635502;28;20067;-60
2021/09/21 10:51:32;;;;;;;1999.90;999.90;;;;;;;20.59;46.21;102311.19;15661705;28;20042;-60
2021/09/21 10:59:15;;;;;;;1999.90;999.90;;;;;;;19.67;48.57;102304.44;15651020;28;20037;-60
2021/09/21 11:06:47;;;;;;;1999.90;999.90;;;;;;;18.43;51.46;102307.50;15653524;28;20139;-59
2021/09/21 11:14:21;;;;;;;1999.90;999.90;;;;;;;18.46;51.30;102329.41;15625749;28;20045;-59
2021/09/21 11:21:58;;;;;;;1999.90;999.90;;;;;;;18.93;51.90;102320.59;15625239;28;20041;-60
2021/09/21 11:29:34;;;;;;;1999.90;999.90;;;;;;;18.67;50.78;102335.06;15617502;28;20049;-58
2021/09/21 11:37:10;;;;;;;1999.90;999.90;;;;;;;18.32;50.50;102322.41;15605352;28;20041;-60
2021/09/21 11:45:17;;;;;;;1999.90;999.90;;;;;;;18.65;50.68;102325.25;15590614;28;20136;-59
2021/09/21 11:52:52;;;;;;;1999.90;999.90;;;;;;;18.77;51.39;102311.16;15622471;28;20049;-58
2021/09/21 12:00:31;;;;;;;1999.90;999.90;;;;;;;18.91;52.38;102313.66;15606735;28;20133;-59
2021/09/21 12:08:05;;;;;;;1999.90;999.90;;;;;;;18.77;52.87;102293.38;15576337;28;20056;-57
2021/09/21 12:15:41;;;;;;;1999.90;999.90;;;;;;;18.89;52.60;102293.38;15561266;28;20100;-61
2021/09/21 12:23:15;;;;;;;1999.90;999.90;;;;;;;18.41;50.22;102303.38;15560372;28;20064;-60
2021/09/21 12:30:49;;;;;;;1999.90;999.90;;;;;;;18.46;50.75;102303.97;15581457;28;20112;-60
2021/09/21 12:38:23;;;;;;;1999.90;999.90;;;;;;;18.33;51.98;102302.28;15622056;28;20080;-60
2021/09/21 12:46:00;;;;;;;1999.90;999.90;;;;;;;18.32;51.62;102285.66;15613964;28;20058;-60
2021/09/21 12:53:35;;;;;;;1999.90;999.90;;;;;;;18.37;51.73;102271.34;15616789;28;20046;-60
2021/09/21 13:01:14;;;;;;;1999.90;999.90;;;;;;;18.74;52.01;102269.41;15622763;28;20045;-61
2021/09/21 13:08:49;;;;;;;1999.90;999.90;;;;;;;20.22;46.75;102265.16;15590233;28;20476;-60
2021/09/21 13:16:24;;;;;;;1999.90;999.90;;;;;;;19.14;49.52;102260.25;15600762;28;20053;-60
2021/09/21 13:24:00;;;;;;;1999.90;999.90;;;;;;;18.48;49.61;102257.59;15662106;28;20127;-60
2021/09/21 13:31:34;;;;;;;1999.90;999.90;;;;;;;18.46;51.08;102260.75;15622287;28;20069;-60
2021/09/21 13:39:07;;;;;;;1999.90;999.90;;;;;;;18.30;52.14;102268.25;15632495;28;20095;-60
2021/09/21 13:46:41;;;;;;;1999.90;999.90;;;;;;;18.03;52.35;102266.84;15641818;23;20065;-56
2021/09/21 13:54:23;;;;;;;1999.90;999.90;;;;;;;18.05;53.22;102256.03;15651012;28;20044;-56
2021/09/21 14:02:03;;;;;;;1999.90;999.90;;;;;;;18.01;53.24;102257.88;15654325;28;20470;-53
2021/09/21 14:09:36;;;;;;;1999.90;999.90;;;;;;;17.81;53.98;102259.56;15631357;28;20041;-52
2021/09/21 14:17:10;;;;;;;1999.90;999.90;;;;;;;17.76;53.53;102265.44;15671403;28;20129;-51
2021/09/21 14:24:43;;;;;;;1999.90;999.90;;;;;;;17.87;54.44;102267.47;15651294;28;20247;-55
2021/09/21 14:32:16;;;;;;;1999.90;999.90;;;;;;;17.84;53.11;102250.41;15671228;28;20433;-54
2021/09/21 14:39:49;;;;;;;1999.90;999.90;;;;;;;17.42;53.16;102249.56;15683392;28;20029;-52
2021/09/21 14:47:42;;;;;;;1999.90;999.90;;;;;;;17.21;53.11;102236.25;15678968;28;20051;-54
2021/09/21 14:55:28;;;;;;;1999.90;999.90;;;;;;;17.62;52.64;102228.16;15689960;28;20041;-59
2021/09/21 15:03:02;;;;;;;1999.90;999.90;;;;;;;17.71;53.52;102237.38;15678210;28;20040;-58
2021/09/21 15:10:53;;;;;;;1999.90;999.90;;;;;;;17.75;52.34;102230.72;15664905;28;20098;-58
2021/09/21 15:18:28;;;;;;;1999.90;999.90;;;;;;;17.64;52.84;102225.81;15689686;28;20060;-59
2021/09/21 15:26:00;;;;;;;1999.90;999.90;;;;;;;17.83;53.59;102212.06;15675986;28;20406;-58
2021/09/21 15:33:34;;;;;;;1999.90;999.90;;;;;;;17.37;53.57;102207.44;15617365;28;20141;-57
2021/09/21 15:41:07;;;;;;;1999.90;999.90;;;;;;;17.19;53.49;102218.81;15623763;28;20033;-57
2021/09/21 15:48:40;;;;;;;1999.90;999.90;;;;;;;17.09;54.86;102219.25;15660422;28;20277;-56
2021/09/21 15:56:17;;;;;;;1999.90;999.90;;;;;;;16.52;57.05;102230.94;15675665;28;20159;-58
2021/09/21 16:03:53;;;;;;;1999.90;999.90;;;;;;;16.32;59.17;102251.38;15702143;28;20093;-55
2021/09/21 16:11:25;;;;;;;1999.90;999.90;;;;;;;16.40;58.65;102247.72;15722182;28;20067;-56
2021/09/21 16:18:59;;;;;;;1999.90;999.90;;;;;;;16.63;59.20;102243.47;15740313;28;20040;-54
2021/09/21 16:26:31;;;;;;;;;;;;;;;16.65;59.33;102241.13;15740562;28;20500;-57
2021/09/21 16:34:08;;;;;;;1999.90;999.90;;;;;;;16.25;60.18;102240.59;15721404;28;20300;-57
2021/09/21 16:41:40;;;;;;;1999.90;999.90;;;;;;;15.65;65.33;102251.94;15739232;28;20123;-55
2021/09/21 16:49:15;;;;;;;1999.90;999.90;;;;;;;15.52;66.76;102234.00;15738886;28;20045;-56
2021/09/21 16:56:48;;;;;;;1999.90;999.90;;;;;;;15.40;68.82;102233.84;15720053;28;20048;-57
2021/09/21 17:04:24;;;;;;;1999.90;999.90;;;;;;;15.19;69.91;102226.03;15672651;28;20063;-56
2021/09/21 17:11:57;;;;;;;1999.90;999.90;;;;;;;15.42;69.12;102223.09;15666137;28;20068;-55
2021/09/21 17:19:37;;;;;;;1999.90;999.90;;;;;;;15.51;68.92;102227.56;15674636;28;20040;-57
2021/09/21 17:27:09;;;;;;;1999.90;999.90;;;;;;;15.37;68.34;102212.84;15638707;28;20079;-58
2021/09/21 17:34:43;;;;;;;1999.90;999.90;;;;;;;15.52;68.34;102209.50;15674311;28;20056;-58
2021/09/21 17:42:42;;;;;;;1999.90;999.90;;;;;;;15.68;67.60;102206.25;15673893;28;20124;-58
2021/09/21 17:50:29;;;;;;;1999.90;999.90;;;;;;;15.49;67.34;102189.66;15712606;28;20045;-59
2021/09/21 17:58:02;;;;;;;1999.90;999.90;;;;;;;15.47;67.43;102186.38;15738981;28;20106;-58
2021/09/21 18:05:37;;;;;;;1999.90;999.90;;;;;;;15.39;68.00;102188.00;15735994;28;20052;-59
2021/09/21 18:13:09;;;;;;;1999.90;999.90;;;;;;;15.51;67.91;102185.34;15734185;28;20045;-60
2021/09/21 18:21:31;;;;;;;1999.90;999.90;;;;;;;15.61;67.29;102177.78;15734239;28;20294;-60
2021/09/21 18:29:35;;;;;;;;;;;;;;;;;;;;;
2021/09/21 18:37:09;;;;;;;1999.90;999.90;;;;;;;15.35;68.34;102164.53;15646687;28;20049;-55
2021/09/21 18:44:42;;;;;;;1999.90;999.90;;;;;;;15.37;68.03;102153.78;15655029;28;20380;-59
2021/09/21 18:52:28;;;;;;;1999.90;999.90;;;;;;;15.27;68.25;102140.84;15647088;28;20088;-57
2021/09/21 19:00:01;;;;;;;1999.90;999.90;;;;;;;15.14;68.36;102135.41;15614195;28;20045;-58
2021/09/21 19:07:35;;;;;;;1999.90;999.90;;;;;;;15.28;67.62;102133.25;15623041;28;20041;-59
2021/09/21 19:15:18;;;;;;;1999.90;999.90;;;;;;;15.47;66.96;102130.94;15669938;28;20445;-59
2021/09/21 19:22:51;;;;;;;1999.90;999.90;;;;;;;15.46;66.29;102129.28;15633762;28;20194;-58
2021/09/21 19:30:25;;;;;;;1999.90;999.90;;;;;;;15.44;65.85;102123.16;15661463;28;20242;-59
2021/09/21 19:37:59;;;;;;;1999.90;999.90;;;;;;;15.47;65.67;102121.66;15638238;28;20099;-59
2021/09/21 19:45:32;;;;;;;1999.90;999.90;;;;;;;15.47;64.98;102125.31;15649676;22;20054;-51
2021/09/21 19:53:07;;;;;;;1999.90;999.90;;;;;;;15.74;64.32;102123.31;15616155;28;20064;-56
2021/09/21 20:00:39;;;;;;;1999.90;999.90;;;;;;;15.69;65.21;102123.47;15631437;28;20119;-51
2021/09/21 20:08:18;;;;;;;1999.90;999.90;;;;;;;15.22;70.27;102129.78;15624336;28;20057;-53
2021/09/21 20:15:52;;;;;;;1999.90;999.90;;;;;;;14.89;74.49;102118.16;15616312;28;20474;-53
2021/09/21 20:23:26;;;;;;;1999.90;999.90;;;;;;;14.89;75.75;102109.72;15615169;28;20049;-55
2021/09/21 20:31:00;;;;;;;1999.90;999.90;;;;;;;14.80;76.19;102086.44;15615374;28;20037;-51
2021/09/21 20:38:33;;;;;;;1999.90;999.90;;;;;;;14.90;76.18;102079.66;15615235;28;20054;-51
2021/09/21 20:46:08;;;;;;;1999.90;999.90;;;;;;;14.77;75.81;102095.50;15627427;28;20139;-55
2021/09/21 20:53:52;;;;;;;1999.90;999.90;;;;;;;15.00;75.63;102094.19;15614559;28;20569;-57
2021/09/21 21:01:24;;;;;;;1999.90;999.90;;;;;;;14.80;77.16;102088.41;15623244;28;20045;-57
2021/09/21 21:08:58;;;;;;;1999.90;999.90;;;;;;;14.93;76.54;102093.88;15596609;28;20080;-57
2021/09/21 21:16:36;;;;;;;1999.90;999.90;;;;;;;14.94;76.24;102080.66;15613316;28;20095;-52
2021/09/21 21:24:10;;;;;;;1999.90;999.90;;;;;;;15.24;75.84;102088.09;15649719;28;20324;-53
2021/09/21 21:31:45;;;;;;;1999.90;999.90;;;;;;;15.21;75.97;102085.09;15612911;28;20065;-53
2021/09/21 21:39:24;;;;;;;1999.90;999.90;;;;;;;15.30;75.78;102085.94;15610621;28;20620;-57
2021/09/21 21:47:07;;;;;;;1999.90;999.90;;;;;;;15.12;76.28;102073.06;15611696;28;20053;-50
2021/09/21 21:55:11;;;;;;;1999.90;999.90;;;;;;;15.14;76.74;102077.19;15633030;28;20053;-53
2021/09/21 22:02:43;;;;;;;1999.90;999.90;;;;;;;15.37;75.87;102082.63;15610515;28;20436;-56
2021/09/21 22:10:19;;;;;;;1999.90;999.90;;;;;;;15.35;76.34;102071.72;15610772;28;20041;-53
2021/09/21 22:17:54;;;;;;;1999.90;999.90;;;;;;;15.38;76.49;102081.47;15593056;28;20490;-51
2021/09/21 22:25:28;;;;;;;1999.90;999.90;;;;;;;15.56;75.74;102078.28;15610316;28;20363;-51
2021/09/21 22:33:00;;;;;;;1999.90;999.90;;;;;;;15.48;76.88;102067.06;15611056;28;20421;-53
2021/09/21 22:40:34;;;;;;;1999.90;999.90;;;;;;;15.36;77.35;102078.16;15609990;28;20041;-53
2021/09/21 22:48:06;;;;;;;1999.90;999.90;;;;;;;15.65;76.45;102072.69;15609094;28;20045;-53
2021/09/21 22:55:43;;;;;;;1999.90;999.90;;;;;;;15.67;76.75;102072.34;15613738;28;20065;-52
2021/09/21 23:03:28;;;;;;;;;;;;;;;;;;;;;
2021/09/21 23:11:18;;;;;;;1999.90;999.90;;;;;;;15.48;76.50;102047.38;15600319;28;20056;-51
2021/09/21 23:18:50;;;;;;;1999.90;999.90;;;;;;;15.37;77.27;102041.25;15657215;28;20118;-54
2021/09/21 23:26:24;;;;;;;1999.90;999.90;;;;;;;15.31;77.59;102045.41;15655088;28;20072;-53
2021/09/21 23:34:00;;;;;;;1999.90;999.90;;;;;;;15.31;77.44;102040.59;15617557;28;20049;-51
2021/09/21 23:41:42;;;;;;;1999.90;999.90;;;;;;;15.20;78.51;102042.09;15615404;28;20159;-54
2021/09/21 23:49:17;;;;;;;1999.90;999.90;;;;;;;15.27;77.96;102034.00;15630572;28;20052;-56
2021/09/21 23:56:50;;;;;;;1999.90;999.90;;;;;;;15.26;78.27;102035.16;15625554;28;20057;-59
